Time;durP1;ratioP1;P1;durP2;ratioP2;P2;SDS_P1;SDS_P2;PMS_P1;PMS_P2;Temp;Humidity;BMP_temperature;BMP_pressure;BME280_temperature;BME280_humidity;BME280_pressure;Samples;Min_cycle;Max_cycle;Signal;HPM_P1;HPM_P2
2022/04/01 00:02:13;;;;;;;2.08;1.10;;;0.90;99.90;;;;;;4878900;29;20495;-81
2022/04/01 00:04:39;;;;;;;2.42;1.00;;;0.90;99.90;;;;;;4873272;29;20041;-82
2022/04/01 00:07:05;;;;;;;2.75;1.10;;;0.90;99.90;;;;;;4873118;29;20436;-83
2022/04/01 00:09:31;;;;;;;3.28;1.27;;;0.90;99.90;;;;;;4871501;29;20041;-83
2022/04/01 00:11:57;;;;;;;3.05;1.20;;;0.90;99.90;;;;;;4878330;29;20101;-83
2022/04/01 00:14:23;;;;;;;4.03;1.10;;;0.90;99.90;;;;;;4872119;29;20043;-83
2022/04/01 00:16:51;;;;;;;3.42;1.00;;;0.90;99.90;;;;;;4874347;29;20051;-83
2022/04/01 00:19:20;;;;;;;3.25;1.17;;;0.90;99.90;;;;;;4855824;29;20040;-82
2022/04/01 00:21:46;;;;;;;4.55;1.30;;;0.90;99.90;;;;;;4870970;29;20114;-84
2022/04/01 00:24:11;;;;;;;2.80;1.20;;;0.90;99.90;;;;;;4873835;29;20152;-84
2022/04/01 00:26:37;;;;;;;2.90;1.30;;;0.90;99.90;;;;;;4875565;29;20076;-83
2022/04/01 00:29:14;;;;;;;2.33;1.00;;;0.90;99.90;;;;;;4870464;29;20037;-82
2022/04/01 00:31:45;;;;;;;2.75;1.10;;;0.90;99.90;;;;;;4870883;29;20048;-84
2022/04/01 00:34:17;;;;;;;2.30;1.00;;;0.90;99.90;;;;;;4840563;29;20438;-83
2022/04/01 00:36:48;;;;;;;;;;;0.90;99.90;;;;;;4872957;29;20044;-82
2022/04/01 00:39:15;;;;;;;3.30;1.08;;;0.90;99.90;;;;;;4873752;29;19930;-82
2022/04/01 00:41:44;;;;;;;5.47;1.52;;;0.90;99.90;;;;;;4868878;29;20041;-84
2022/04/01 00:44:22;;;;;;;4.43;1.40;;;0.90;99.90;;;;;;4870135;29;20048;-84
2022/04/01 00:47:03;;;;;;;3.05;1.10;;;0.90;99.90;;;;;;4869645;29;20105;-82
2022/04/01 00:49:29;;;;;;;2.90;1.00;;;0.90;99.90;;;;;;4868143;29;20441;-83
2022/04/01 00:52:01;;;;;;;3.30;1.13;;;0.90;99.90;;;;;;4872418;29;20498;-82
2022/04/01 00:54:27;;;;;;;3.57;1.17;;;0.90;99.90;;;;;;4857125;29;20072;-82
2022/04/01 00:56:54;;;;;;;4.88;1.15;;;0.80;99.90;;;;;;4857361;29;20048;-83
2022/04/01 00:59:20;;;;;;;2.58;1.13;;;0.90;99.90;;;;;;4855437;29;20061;-83
2022/04/01 01:01:49;;;;;;;4.53;0.85;;;0.90;99.90;;;;;;4874588;29;20143;-83
2022/04/01 01:04:17;;;;;;;2.05;0.80;;;0.80;99.90;;;;;;4873704;29;20044;-83
2022/04/01 01:06:44;;;;;;;2.90;0.70;;;0.80;99.90;;;;;;4875460;29;20088;-81
2022/04/01 01:09:12;;;;;;;2.42;0.90;;;0.90;99.90;;;;;;4850051;29;20466;-83
2022/04/01 01:11:39;;;;;;;3.83;0.80;;;0.80;99.90;;;;;;4872815;29;20045;-83
2022/04/01 01:14:08;;;;;;;3.05;0.90;;;0.80;99.90;;;;;;4873585;29;20044;-83
2022/04/01 01:16:40;;;;;;;2.58;1.00;;;0.80;99.90;;;;;;4890591;29;20458;-83
2022/04/01 01:19:15;;;;;;;2.95;1.33;;;0.80;99.90;;;;;;4888808;29;20390;-81
2022/04/01 01:21:42;;;;;;;5.45;1.20;;;0.80;99.90;;;;;;4874675;29;20049;-81
2022/04/01 01:24:11;;;;;;;2.38;0.85;;;0.80;99.90;;;;;;4869381;29;20048;-82
2022/04/01 01:26:37;;;;;;;5.63;0.98;;;0.80;99.90;;;;;;4871078;29;20045;-83
2022/04/01 01:29:05;;;;;;;2.22;0.70;;;0.80;99.90;;;;;;4868436;29;20048;-83
2022/04/01 01:31:31;;;;;;;4.07;1.10;;;0.80;99.90;;;;;;4875484;29;20139;-82
2022/04/01 01:33:58;;;;;;;4.90;0.93;;;0.80;99.90;;;;;;4860319;29;20048;-83
2022/04/01 01:36:27;;;;;;;2.47;0.77;;;0.70;99.90;;;;;;4855714;29;20120;-82
2022/04/01 01:38:52;;;;;;;1.75;0.65;;;0.70;99.90;;;;;;4872213;29;20055;-83
2022/04/01 01:41:19;;;;;;;2.72;0.85;;;0.80;99.90;;;;;;4874995;29;20048;-82
2022/04/01 01:43:45;;;;;;;2.88;1.00;;;0.70;99.90;;;;;;4860096;29;20447;-84
2022/04/01 01:46:11;;;;;;;3.10;0.90;;;0.70;99.90;;;;;;4888824;29;20048;-83
2022/04/01 01:48:37;;;;;;;3.17;1.05;;;0.70;99.90;;;;;;4874254;29;20063;-85
2022/04/01 01:56:32;;;;;;;3.05;0.70;;;0.70;99.90;;;;;;4889824;29;20814;-82
2022/04/01 01:58:58;;;;;;;2.25;0.90;;;0.80;99.90;;;;;;4858320;29;20036;-83
2022/04/01 02:01:24;;;;;;;3.78;1.10;;;0.70;99.90;;;;;;4859265;29;20529;-83
2022/04/01 02:03:51;;;;;;;3.80;0.95;;;0.70;99.90;;;;;;4875705;29;20036;-83
2022/04/01 02:06:21;;;;;;;2.88;0.90;;;0.70;99.90;;;;;;4858524;29;20402;-83
2022/04/01 02:08:51;;;;;;;2.95;1.05;;;0.80;99.90;;;;;;4858553;29;20498;-82
2022/04/01 02:11:21;;;;;;;2.30;1.00;;;0.80;99.90;;;;;;4855701;29;20884;-82
2022/04/01 02:13:48;;;;;;;2.35;0.90;;;0.80;99.90;;;;;;4859173;29;20487;-83
2022/04/01 02:16:14;;;;;;;2.67;1.02;;;0.80;99.90;;;;;;4872030;29;20562;-82
2022/04/01 02:18:41;;;;;;;3.65;1.20;;;0.80;99.90;;;;;;4879099;29;20075;-83
2022/04/01 02:21:15;;;;;;;1.90;0.82;;;0.80;99.90;;;;;;4861889;29;20396;-82
2022/04/01 02:23:45;;;;;;;4.35;0.90;;;0.80;99.90;;;;;;4859510;29;20083;-82
2022/04/01 02:26:12;;;;;;;2.05;0.63;;;0.80;99.90;;;;;;4873487;29;20524;-81
2022/04/01 02:28:39;;;;;;;2.00;0.70;;;0.70;99.90;;;;;;4892351;29;20048;-82
2022/04/01 02:31:05;;;;;;;3.20;0.95;;;0.70;99.90;;;;;;4859213;29;20070;-83
2022/04/01 02:33:35;;;;;;;3.30;1.00;;;0.70;99.90;;;;;;4890761;29;20047;-83
2022/04/01 02:36:02;;;;;;;2.42;0.90;;;0.70;99.90;;;;;;4880999;29;20473;-82
2022/04/01 02:38:29;;;;;;;5.13;1.27;;;0.70;99.90;;;;;;4869330;29;20363;-83
2022/04/01 02:40:57;;;;;;;4.18;1.20;;;0.70;99.90;;;;;;4875008;29;20397;-83
2022/04/01 02:43:26;;;;;;;4.68;1.00;;;0.70;99.90;;;;;;4874176;29;20495;-83
2022/04/01 02:45:52;;;;;;;2.47;0.88;;;0.70;99.90;;;;;;4876185;29;20052;-83
2022/04/01 02:48:20;;;;;;;6.07;1.15;;;0.70;99.90;;;;;;4876148;29;20521;-83
2022/04/01 02:50:48;;;;;;;2.70;1.10;;;0.70;99.90;;;;;;4857651;29;20043;-82
2022/04/01 02:53:16;;;;;;;2.47;0.77;;;0.70;99.90;;;;;;4865960;29;20490;-83
2022/04/01 02:55:42;;;;;;;3.33;0.90;;;0.70;99.90;;;;;;4876087;29;20037;-83
2022/04/01 02:58:09;;;;;;;4.05;1.10;;;0.70;99.90;;;;;;4859391;29;20470;-83
2022/04/01 03:00:37;;;;;;;6.20;0.85;;;0.70;99.90;;;;;;4860846;29;20517;-83
2022/04/01 03:03:06;;;;;;;5.32;1.17;;;0.70;99.90;;;;;;4870649;29;20052;-84
2022/04/01 03:05:36;;;;;;;2.83;0.70;;;0.70;99.90;;;;;;4872343;29;20088;-83
2022/04/01 03:08:06;;;;;;;3.50;1.13;;;0.70;99.90;;;;;;4889976;29;20306;-83
2022/04/01 03:10:36;;;;;;;3.97;1.08;;;0.80;99.90;;;;;;4890055;29;20486;-83
2022/04/01 03:13:02;;;;;;;2.85;1.00;;;0.80;99.90;;;;;;4862859;29;20103;-82
2022/04/01 03:15:29;;;;;;;3.00;1.00;;;0.80;99.90;;;;;;4860336;29;20533;-82
2022/04/01 03:17:58;;;;;;;2.85;0.90;;;0.80;99.90;;;;;;4867003;29;20045;-83
2022/04/01 03:20:25;;;;;;;2.95;1.02;;;0.80;99.90;;;;;;4874187;29;20426;-82
2022/04/01 03:22:51;;;;;;;3.08;0.82;;;0.80;99.90;;;;;;4877781;29;20091;-81
2022/04/01 03:25:19;;;;;;;2.35;0.90;;;0.80;99.90;;;;;;4876530;29;20541;-82
2022/04/01 03:27:49;;;;;;;2.47;0.88;;;0.80;99.90;;;;;;4892367;29;20478;-85
2022/04/01 03:30:16;;;;;;;2.15;0.88;;;0.80;99.90;;;;;;4858370;29;20093;-83
2022/04/01 03:32:45;;;;;;;3.38;1.00;;;0.80;99.90;;;;;;4862853;29;20043;-81
2022/04/01 03:35:17;;;;;;;4.82;0.95;;;0.80;99.90;;;;;;4877168;29;20080;-84
2022/04/01 03:37:45;;;;;;;3.10;0.88;;;0.70;99.90;;;;;;4875553;29;20049;-83
2022/04/01 03:40:14;;;;;;;1.70;0.80;;;0.70;99.90;;;;;;4862186;29;20037;-83
2022/04/01 03:42:42;;;;;;;4.43;1.00;;;0.80;99.90;;;;;;4859012;29;20036;-83
2022/04/01 03:45:08;;;;;;;2.70;1.10;;;0.70;99.90;;;;;;4861986;29;20044;-82
2022/04/01 03:47:40;;;;;;;3.42;1.17;;;0.80;99.90;;;;;;4863500;29;20482;-83
2022/04/01 03:50:09;;;;;;;3.30;1.00;;;0.80;99.90;;;;;;4877637;29;20436;-84
2022/04/01 03:52:35;;;;;;;5.00;1.25;;;0.80;99.90;;;;;;4892408;29;20695;-84
2022/04/01 03:55:09;;;;;;;2.13;0.68;;;0.70;99.90;;;;;;4875913;29;20112;-83
2022/04/01 03:57:39;;;;;;;3.63;1.00;;;0.70;99.90;;;;;;4892411;29;20044;-83
2022/04/01 04:00:07;;;;;;;2.03;0.75;;;0.80;99.90;;;;;;4843253;29;20475;-84
2022/04/01 04:02:34;;;;;;;3.25;0.93;;;0.80;99.90;;;;;;4843438;29;20129;-84
2022/04/01 04:05:07;;;;;;;6.70;1.00;;;0.80;99.90;;;;;;4871923;29;20092;-83
2022/04/01 04:07:33;;;;;;;3.95;1.00;;;0.80;99.90;;;;;;4863574;29;20092;-84
2022/04/01 04:09:59;;;;;;;3.05;0.98;;;0.80;99.90;;;;;;4854565;29;20042;-84
2022/04/01 04:12:27;;;;;;;5.25;0.93;;;0.80;99.90;;;;;;4840163;29;20048;-84
2022/04/01 04:14:54;;;;;;;3.72;0.90;;;0.90;99.90;;;;;;4873996;29;20089;-83
2022/04/01 04:17:46;;;;;;;4.53;0.93;;;0.90;99.90;;;;;;4876294;29;20037;-84
2022/04/01 04:20:33;;;;;;;1.70;0.90;;;0.90;99.90;;;;;;4847480;29;20063;-81
2022/04/01 04:23:23;;;;;;;5.03;0.93;;;0.90;99.90;;;;;;4869968;29;20053;-83
2022/04/01 04:26:11;;;;;;;4.85;1.42;;;0.90;99.90;;;;;;4887964;29;20045;-83
2022/04/01 04:28:40;;;;;;;11.57;1.38;;;0.90;99.90;;;;;;4876117;29;20107;-84
2022/04/01 04:31:08;;;;;;;3.17;1.08;;;0.90;99.90;;;;;;4857252;29;20036;-84
2022/04/01 04:33:45;;;;;;;10.23;1.10;;;0.90;99.90;;;;;;4853626;29;20064;-83
2022/04/01 04:36:14;;;;;;;3.60;0.70;;;0.90;99.90;;;;;;4869567;29;20034;-84
2022/04/01 04:38:43;;;;;;;2.35;0.70;;;1.00;99.90;;;;;;4857748;29;20046;-84
2022/04/01 04:41:09;;;;;;;1.73;0.60;;;1.00;99.90;;;;;;4855156;29;20037;-83
2022/04/01 04:43:41;;;;;;;7.22;0.85;;;1.00;99.90;;;;;;4858792;29;20053;-84
2022/04/01 04:46:08;;;;;;;1.83;0.70;;;1.10;99.90;;;;;;4861953;29;20053;-83
2022/04/01 04:48:36;;;;;;;3.10;0.73;;;1.10;99.90;;;;;;4874657;29;20041;-84
2022/04/01 04:51:03;;;;;;;2.13;0.60;;;1.10;99.90;;;;;;4857932;29;20033;-83
2022/04/01 04:53:34;;;;;;;2.85;0.88;;;1.10;99.90;;;;;;4872697;29;20068;-83
2022/04/01 04:56:04;;;;;;;3.10;0.70;;;1.10;99.90;;;;;;4874660;29;20056;-84
2022/04/01 04:58:43;;;;;;;2.10;0.80;;;1.20;99.90;;;;;;4870766;29;20052;-83
2022/04/01 05:01:38;;;;;;;2.20;0.88;;;1.20;99.90;;;;;;4855203;29;20107;-84
2022/04/01 05:04:32;;;;;;;2.53;0.70;;;1.20;99.90;;;;;;4857528;29;20140;-84
2022/04/01 05:07:25;;;;;;;1.58;0.50;;;1.20;99.90;;;;;;4872897;29;20463;-84
2022/04/01 05:10:00;;;;;;;1.83;0.85;;;1.20;99.90;;;;;;4871740;29;20117;-84
2022/04/01 05:12:53;;;;;;;4.40;0.63;;;1.30;99.90;;;;;;4873326;29;20616;-85
2022/04/01 05:15:24;;;;;;;2.00;0.73;;;1.30;99.90;;;;;;4875395;29;20402;-84
2022/04/01 05:17:54;;;;;;;2.42;0.60;;;1.20;99.90;;;;;;4871749;29;20051;-83
2022/04/01 05:20:28;;;;;;;2.38;0.70;;;1.30;99.90;;;;;;4877560;29;20135;-84
2022/04/01 05:23:05;;;;;;;3.63;0.70;;;1.30;99.90;;;;;;4872564;29;20075;-84
2022/04/01 05:25:40;;;;;;;2.25;0.60;;;1.30;99.90;;;;;;4865806;29;20127;-84
2022/04/01 05:28:11;;;;;;;2.47;0.60;;;1.30;99.90;;;;;;4856120;29;20555;-83
2022/04/01 05:30:38;;;;;;;3.78;0.70;;;1.30;99.90;;;;;;4869735;29;20044;-84
2022/04/01 05:33:16;;;;;;;3.38;0.70;;;1.30;99.90;;;;;;4870213;29;20169;-84
2022/04/01 05:35:44;;;;;;;2.50;0.50;;;1.30;99.90;;;;;;4868120;29;20563;-84
2022/04/01 05:38:09;;;;;;;4.30;0.68;;;1.30;99.90;;;;;;4871894;29;20048;-84
2022/04/01 05:40:37;;;;;;;3.60;0.80;;;1.40;99.90;;;;;;4855440;29;20044;-84
2022/04/01 05:43:04;;;;;;;4.00;0.55;;;1.40;99.90;;;;;;4855337;29;20045;-84
2022/04/01 05:45:31;;;;;;;1.65;0.45;;;1.40;99.90;;;;;;4873384;29;20049;-85
2022/04/01 05:47:57;;;;;;;3.63;0.50;;;1.40;99.90;;;;;;4874585;29;20049;-83
2022/04/01 05:50:25;;;;;;;1.90;0.40;;;1.50;99.90;;;;;;4860024;29;20119;-83
2022/04/01 05:52:52;;;;;;;2.70;0.57;;;1.50;99.90;;;;;;4870548;29;20047;-83
2022/04/01 05:55:24;;;;;;;2.35;0.40;;;1.50;99.90;;;;;;4864024;29;20037;-84
2022/04/01 05:57:51;;;;;;;1.40;0.47;;;1.50;99.90;;;;;;4861941;29;20084;-84
2022/04/01 06:00:16;;;;;;;2.53;0.60;;;1.60;99.90;;;;;;4867237;29;20084;-83
2022/04/01 06:03:13;;;;;;;1.65;0.40;;;1.60;99.90;;;;;;4853949;29;20440;-82
2022/04/01 06:05:57;;;;;;;1.10;0.35;;;1.70;99.90;;;;;;4883631;29;20044;-84
2022/04/01 06:08:25;;;;;;;1.50;0.40;;;1.70;99.90;;;;;;4867886;29;20037;-84
2022/04/01 06:11:37;;;;;;;1.42;0.40;;;1.80;99.90;;;;;;4870486;29;20570;-84
2022/04/01 06:14:17;;;;;;;2.63;1.30;;;1.80;99.90;;;;;;4869139;29;20053;-84
2022/04/01 06:16:47;;;;;;;3.70;0.40;;;1.90;99.90;;;;;;4856777;29;20036;-82
2022/04/01 06:19:46;;;;;;;2.50;0.40;;;1.90;99.90;;;;;;4852959;29;20397;-83
2022/04/01 06:22:17;;;;;;;0.95;0.38;;;1.90;99.90;;;;;;4859143;29;20053;-84
2022/04/01 06:24:58;;;;;;;2.75;0.30;;;2.00;99.90;;;;;;4851770;29;20077;-83
2022/04/01 06:27:34;;;;;;;2.40;0.50;;;2.00;99.90;;;;;;4876018;29;20045;-84
2022/04/01 06:30:05;;;;;;;2.15;0.35;;;2.10;99.90;;;;;;4858397;29;20132;-84
2022/04/01 06:33:03;;;;;;;4.97;0.60;;;2.10;99.90;;;;;;4853060;29;20041;-84
2022/04/01 06:35:35;;;;;;;2.63;0.50;;;2.20;99.90;;;;;;4869900;29;20147;-83
2022/04/01 06:38:03;;;;;;;3.47;0.50;;;2.20;99.90;;;;;;4838706;29;20178;-84
2022/04/01 06:40:42;;;;;;;3.00;0.38;;;2.20;99.90;;;;;;4870989;29;20045;-84
2022/04/01 06:43:08;;;;;;;1.02;0.40;;;2.30;99.90;;;;;;4861085;29;20089;-84
2022/04/01 06:45:34;;;;;;;1.45;0.30;;;2.30;99.90;;;;;;4856271;29;20044;-84
2022/04/01 06:47:59;;;;;;;2.10;0.40;;;2.30;99.90;;;;;;4872716;29;20048;-83
2022/04/01 06:50:25;;;;;;;1.65;0.30;;;2.30;99.90;;;;;;4873272;29;20037;-82
2022/04/01 06:52:51;;;;;;;2.67;0.55;;;2.40;99.90;;;;;;4877423;29;20033;-83
2022/04/01 06:55:17;;;;;;;5.35;0.50;;;2.40;99.90;;;;;;4856453;29;20044;-82
2022/04/01 06:57:43;;;;;;;1.90;0.60;;;2.40;99.90;;;;;;4876815;29;20049;-83
2022/04/01 07:00:12;;;;;;;1.48;0.30;;;2.40;99.90;;;;;;4856400;29;20045;-84
2022/04/01 07:02:39;;;;;;;1.77;0.40;;;2.50;99.90;;;;;;4844428;29;20579;-85
2022/04/01 07:05:05;;;;;;;3.58;0.50;;;2.50;99.90;;;;;;4873194;29;20033;-84
2022/04/01 07:07:32;;;;;;;2.25;0.60;;;2.50;99.90;;;;;;4871251;29;20166;-84
2022/04/01 07:09:57;;;;;;;7.93;0.68;;;2.60;99.90;;;;;;4874244;29;20045;-82
2022/04/01 07:12:23;;;;;;;9.23;1.50;;;2.60;99.90;;;;;;4857805;29;20041;-84
2022/04/01 07:14:50;;;;;;;2.83;0.85;;;2.70;99.90;;;;;;4874640;29;20128;-84
2022/04/01 07:17:16;;;;;;;2.53;0.50;;;2.70;99.90;;;;;;4877507;29;20037;-84
2022/04/01 07:19:41;;;;;;;2.13;0.52;;;2.70;99.90;;;;;;4873043;29;20574;-82
2022/04/01 07:22:07;;;;;;;2.83;0.40;;;2.80;99.90;;;;;;4858447;29;20052;-83
2022/04/01 07:24:33;;;;;;;3.00;0.82;;;2.80;99.90;;;;;;4879570;29;20059;-83
2022/04/01 07:27:00;;;;;;;1.73;0.60;;;2.80;99.90;;;;;;4858151;29;20069;-85
2022/04/01 07:29:26;;;;;;;1.45;0.40;;;2.90;99.90;;;;;;4856958;29;20057;-84
2022/04/01 07:34:41;;;;;;;1.88;0.93;;;3.00;99.90;;;;;;4869784;29;20040;-84
2022/04/01 07:37:07;;;;;;;2.97;0.70;;;3.00;99.90;;;;;;4857182;29;20567;-84
2022/04/01 07:39:33;;;;;;;1.90;0.57;;;3.10;99.90;;;;;;4860017;29;20049;-84
2022/04/01 07:41:58;;;;;;;2.55;0.43;;;3.20;99.90;;;;;;4874262;29;20048;-85
2022/04/01 07:44:24;;;;;;;2.45;0.50;;;3.20;99.90;;;;;;4876535;29;20037;-84
2022/04/01 07:46:51;;;;;;;2.53;0.50;;;3.20;99.90;;;;;;4865195;29;20522;-84
2022/04/01 07:49:17;;;;;;;1.85;0.40;;;3.30;99.90;;;;;;4864727;29;20118;-83
2022/04/01 07:51:43;;;;;;;4.25;0.60;;;3.30;99.90;;;;;;4871281;29;20045;-84
2022/04/01 07:54:14;;;;;;;1.67;0.43;;;3.30;99.90;;;;;;4858980;29;20043;-85
2022/04/01 07:56:40;;;;;;;2.15;0.40;;;3.30;99.90;;;;;;4875012;29;20453;-84
2022/04/01 07:59:15;;;;;;;1.98;0.40;;;3.20;99.90;;;;;;4854007;29;20466;-82
2022/04/01 08:01:41;;;;;;;2.85;0.50;;;3.20;99.90;;;;;;4871280;29;20053;-83
2022/04/01 08:04:07;;;;;;;2.50;0.50;;;3.20;99.90;;;;;;4875486;29;20426;-83
2022/04/01 08:06:33;;;;;;;3.10;0.50;;;3.20;99.90;;;;;;4857524;29;20080;-83
2022/04/01 08:08:59;;;;;;;2.17;0.50;;;3.30;99.90;;;;;;4870702;29;20510;-83
2022/04/01 08:11:28;;;;;;;4.35;0.70;;;3.30;99.90;;;;;;4861672;29;20072;-83
2022/04/01 08:13:55;;;;;;;1.70;0.40;;;3.40;99.90;;;;;;4859863;29;20092;-83
2022/04/01 08:16:22;;;;;;;6.13;0.82;;;3.40;99.90;;;;;;4861034;29;20032;-84
2022/04/01 08:18:48;;;;;;;0.95;0.50;;;3.40;99.90;;;;;;4856829;29;20552;-82
2022/04/01 08:21:15;;;;;;;4.97;1.00;;;3.40;99.90;;;;;;4860180;29;20117;-83
2022/04/01 08:23:40;;;;;;;3.50;0.80;;;3.40;99.90;;;;;;4874228;29;20387;-83
2022/04/01 08:26:07;;;;;;;2.58;0.60;;;3.40;99.90;;;;;;4893817;29;20112;-82
2022/04/01 08:28:33;;;;;;;4.82;0.50;;;3.40;99.90;;;;;;4855910;29;20044;-83
2022/04/01 08:31:00;;;;;;;2.67;0.70;;;3.40;99.90;;;;;;4873916;29;20057;-82
2022/04/01 08:33:26;;;;;;;1.52;0.30;;;3.40;99.90;;;;;;4875676;29;20044;-83
2022/04/01 08:35:51;;;;;;;3.40;0.60;;;3.40;99.90;;;;;;4872097;29;20041;-82
2022/04/01 08:38:17;;;;;;;2.55;0.50;;;3.50;99.90;;;;;;4859862;29;20052;-81
2022/04/01 08:40:43;;;;;;;2.78;0.70;;;3.50;99.90;;;;;;4878482;29;20489;-83
2022/04/01 08:43:09;;;;;;;2.80;0.80;;;3.50;99.90;;;;;;4876834;29;20376;-86
2022/04/01 08:45:39;;;;;;;3.75;0.90;;;3.50;99.90;;;;;;4858380;29;20417;-83
2022/04/01 08:48:10;;;;;;;2.67;0.70;;;3.50;99.90;;;;;;4870602;29;20050;-84
2022/04/01 08:50:35;;;;;;;2.42;0.70;;;3.50;99.90;;;;;;4890371;29;20044;-83
2022/04/01 08:53:02;;;;;;;2.95;1.17;;;3.50;99.90;;;;;;4890683;29;20459;-85
2022/04/01 08:55:28;;;;;;;3.00;1.08;;;3.60;99.90;;;;;;4862874;29;20044;-84
2022/04/01 08:57:53;;;;;;;6.03;1.10;;;3.60;99.90;;;;;;4846042;29;20044;-83
2022/04/01 09:00:19;;;;;;;4.95;1.60;;;3.70;99.90;;;;;;4865946;29;20191;-84
2022/04/01 09:03:00;;;;;;;4.25;1.38;;;3.80;99.90;;;;;;4898191;29;20052;-82
2022/04/01 09:05:26;;;;;;;4.38;1.70;;;3.90;99.90;;;;;;4892028;29;20040;-84
2022/04/01 09:08:24;;;;;;;6.25;1.55;;;3.90;99.90;;;;;;4893979;29;20040;-82
2022/04/01 09:10:52;;;;;;;3.28;1.67;;;4.00;99.90;;;;;;4874811;29;20051;-84
2022/04/01 09:13:17;;;;;;;4.75;1.80;;;4.00;99.90;;;;;;4876573;29;20127;-83
2022/04/01 09:15:43;;;;;;;4.72;1.98;;;4.00;99.90;;;;;;4863150;29;21409;-83
2022/04/01 09:18:10;;;;;;;3.58;1.83;;;4.00;99.90;;;;;;4879733;29;20143;-84
2022/04/01 09:20:48;;;;;;;4.30;1.75;;;4.10;99.90;;;;;;4880816;29;20370;-84
2022/04/01 09:23:23;;;;;;;4.70;1.88;;;4.30;99.90;;;;;;4847743;29;20139;-83
2022/04/01 09:25:50;;;;;;;5.55;1.88;;;4.30;99.90;;;;;;4874974;29;20120;-83
2022/04/01 09:28:28;;;;;;;3.58;1.73;;;4.40;99.90;;;;;;4862046;29;20188;-82
2022/04/01 09:31:03;;;;;;;4.32;1.60;;;4.50;99.90;;;;;;4873242;29;20084;-83
2022/04/01 09:33:49;;;;;;;4.40;1.77;;;4.50;99.90;;;;;;4876916;29;20483;-83
2022/04/01 09:36:26;;;;;;;3.97;2.10;;;4.70;99.90;;;;;;4871707;29;20405;-82
2022/04/01 09:38:57;;;;;;;4.82;2.10;;;4.70;99.90;;;;;;4861548;29;20074;-83
2022/04/01 09:41:34;;;;;;;3.42;2.00;;;4.70;99.90;;;;;;4873976;29;20040;-81
2022/04/01 09:44:16;;;;;;;4.78;1.67;;;4.60;99.90;;;;;;4869601;29;20375;-84
2022/04/01 09:46:47;;;;;;;4.65;2.00;;;4.60;99.90;;;;;;4891299;29;20044;-84
2022/04/01 09:49:28;;;;;;;3.83;2.03;;;4.60;99.90;;;;;;4857823;29;20179;-82
2022/04/01 09:51:54;;;;;;;6.53;2.33;;;4.70;99.90;;;;;;4876064;29;20045;-83
2022/04/01 09:54:19;;;;;;;7.10;2.47;;;4.70;99.90;;;;;;4860688;29;20490;-83
2022/04/01 09:56:47;;;;;;;4.72;2.40;;;4.70;99.90;;;;;;4897041;29;20032;-83
2022/04/01 09:59:15;;;;;;;4.95;2.33;;;4.60;99.90;;;;;;4869161;29;20040;-80
2022/04/01 10:01:42;;;;;;;5.13;2.40;;;4.50;99.90;;;;;;4858436;29;20513;-82
2022/04/01 10:04:08;;;;;;;5.38;2.60;;;4.50;99.90;;;;;;4864748;29;20071;-84
2022/04/01 10:06:35;;;;;;;5.32;2.78;;;4.50;99.90;;;;;;4858968;29;20818;-83
2022/04/01 10:09:07;;;;;;;7.80;2.65;;;4.40;99.90;;;;;;4871342;29;20058;-82
2022/04/01 10:11:36;;;;;;;8.20;2.70;;;4.30;99.90;;;;;;4891803;29;20191;-84
2022/04/01 10:14:08;;;;;;;4.82;2.58;;;4.30;99.90;;;;;;4873907;29;20140;-83
2022/04/01 10:16:35;;;;;;;6.72;3.22;;;4.30;99.90;;;;;;4877572;29;20122;-84
2022/04/01 10:19:08;;;;;;;4.97;2.55;;;4.40;99.90;;;;;;4870132;29;20091;-84
2022/04/01 10:21:35;;;;;;;;;;;4.50;99.90;;;;;;4877111;29;20048;-84
2022/04/01 10:24:38;;;;;;;5.47;3.25;;;4.60;99.90;;;;;;4862572;29;19924;-83
2022/04/01 10:27:04;;;;;;;;;;;4.80;99.90;;;;;;4855817;29;20509;-84
2022/04/01 10:29:31;;;;;;;7.75;3.08;;;4.90;99.90;;;;;;4865688;29;20272;-83
2022/04/01 10:32:20;;;;;;;4.82;2.85;;;4.90;99.90;;;;;;4879406;29;20135;-84
2022/04/01 10:34:47;;;;;;;5.28;2.88;;;4.80;99.90;;;;;;4873319;29;20088;-84
2022/04/01 10:37:14;;;;;;;4.88;2.60;;;4.70;99.90;;;;;;4879756;29;20600;-82
2022/04/01 10:40:00;;;;;;;5.63;2.80;;;4.80;99.90;;;;;;4871579;29;20098;-84
2022/04/01 10:42:31;;;;;;;4.82;2.97;;;4.90;99.90;;;;;;4860988;29;20044;-84
2022/04/01 10:45:00;;;;;;;5.60;2.75;;;4.80;99.90;;;;;;4895145;29;20143;-84
2022/04/01 10:53:40;;;;;;;8.30;2.80;;;4.60;99.90;;;;;;4865826;29;20139;-84
2022/04/01 10:56:21;;;;;;;5.63;3.30;;;4.70;99.90;;;;;;4846612;29;20056;-84
2022/04/01 10:59:09;;;;;;;5.40;2.70;;;4.70;99.90;;;;;;4861610;29;20136;-84
2022/04/01 11:01:59;;;;;;;6.22;2.67;;;4.50;99.90;;;;;;4878880;29;20052;-82
2022/04/01 11:04:28;;;;;;;7.28;2.97;;;4.40;99.90;;;;;;4847620;29;20439;-83
2022/04/01 11:06:57;;;;;;;5.55;2.90;;;4.50;99.90;;;;;;4880041;29;20036;-84
2022/04/01 11:09:45;;;;;;;5.03;2.92;;;4.60;99.90;;;;;;4872632;29;20480;-84
2022/04/01 11:12:21;;;;;;;4.85;2.60;;;4.60;99.90;;;;;;4877757;29;20392;-84
2022/04/01 11:15:07;;;;;;;7.53;2.67;;;4.70;99.90;;;;;;4883071;29;20092;-84
2022/04/01 11:17:35;;;;;;;10.93;2.80;;;4.70;99.90;;;;;;4890665;29;20044;-83
2022/04/01 11:20:02;;;;;;;5.20;2.70;;;5.00;99.90;;;;;;4862187;29;20068;-84
2022/04/01 11:22:39;;;;;;;7.07;3.25;;;5.30;99.90;;;;;;4857589;29;20068;-83
2022/04/01 11:25:31;;;;;;;4.35;2.60;;;5.50;99.90;;;;;;4858648;29;20155;-83
2022/04/01 11:28:16;;;;;;;3.97;1.75;;;5.50;99.40;;;;;;4872698;29;20061;-83
2022/04/01 11:31:03;;;;;;;4.13;1.90;;;5.50;98.10;;;;;;4855178;29;20044;-84
2022/04/01 11:33:29;;;;;;;3.50;1.60;;;5.50;96.90;;;;;;4879562;29;20128;-81
2022/04/01 11:35:57;;;;;;;8.13;1.85;;;5.60;97.50;;;;;;4869966;29;20488;-82
2022/04/01 11:38:28;;;;;;;2.80;1.17;;;5.70;96.80;;;;;;4861055;29;20040;-81
2022/04/01 11:40:58;;;;;;;3.33;1.43;;;6.00;96.90;;;;;;4859208;29;20571;-81
2022/04/01 11:43:26;;;;;;;3.17;1.15;;;6.10;95.80;;;;;;4860398;29;20055;-83
2022/04/01 11:45:57;;;;;;;2.88;1.00;;;6.10;95.50;;;;;;4874983;29;20132;-83
2022/04/01 11:48:26;;;;;;;2.80;0.82;;;5.90;94.20;;;;;;4875420;29;20446;-82
2022/04/01 11:51:16;;;;;;;2.33;0.82;;;5.80;94.90;;;;;;4898203;29;20210;-82
2022/04/01 11:53:47;;;;;;;2.25;0.93;;;5.70;94.40;;;;;;4854717;29;20056;-82
2022/04/01 11:56:14;;;;;;;4.05;1.10;;;5.50;93.00;;;;;;4870340;29;20502;-81
2022/04/01 11:58:56;;;;;;;1.58;0.80;;;5.50;93.40;;;;;;4866449;29;20095;-82
2022/04/01 12:01:35;;;;;;;1.83;0.70;;;5.70;92.90;;;;;;4846686;29;20060;-82
2022/04/01 12:04:09;;;;;;;2.20;0.70;;;6.00;92.90;;;;;;4869122;29;20096;-83
2022/04/01 12:09:27;;;;;;;2.58;1.05;;;6.40;91.20;;;;;;4875858;29;20495;-82
2022/04/01 12:11:52;;;;;;;2.08;0.90;;;6.50;91.80;;;;;;4874127;29;20132;-83
2022/04/01 12:14:24;;;;;;;2.95;1.02;;;6.50;92.50;;;;;;4874386;29;20152;-83
2022/04/01 12:16:50;;;;;;;2.42;1.00;;;6.30;92.10;;;;;;4858689;29;20262;-82
2022/04/01 12:19:20;;;;;;;2.42;0.80;;;6.00;92.40;;;;;;4873789;29;20040;-82
2022/04/01 12:21:51;;;;;;;3.47;0.82;;;5.70;93.00;;;;;;4874986;29;20128;-82
2022/04/01 12:24:17;;;;;;;3.72;0.90;;;5.50;92.80;;;;;;4859514;29;20053;-83
2022/04/01 12:26:46;;;;;;;1.60;0.98;;;5.50;93.00;;;;;;4857134;29;20359;-82
2022/04/01 12:29:26;;;;;;;1.60;0.50;;;5.80;92.30;;;;;;4868626;29;20146;-83
2022/04/01 12:31:54;;;;;;;2.40;1.05;;;5.80;89.70;;;;;;4873534;29;20479;-83
2022/04/01 12:34:21;;;;;;;2.72;0.68;;;6.00;90.80;;;;;;4873705;29;20040;-83
2022/04/01 12:36:52;;;;;;;1.63;0.70;;;6.30;89.90;;;;;;4874136;29;20460;-84
2022/04/01 12:39:18;;;;;;;2.83;0.65;;;6.60;88.80;;;;;;4872743;29;20533;-81
2022/04/01 12:41:50;;;;;;;1.60;0.60;;;6.80;86.70;;;;;;4874165;29;20127;-82
2022/04/01 12:44:16;;;;;;;2.92;0.80;;;6.80;84.50;;;;;;4862554;29;20384;-82
2022/04/01 12:46:47;;;;;;;2.35;0.70;;;6.90;83.30;;;;;;4871627;29;20047;-82
2022/04/01 12:49:15;;;;;;;1.88;1.00;;;7.00;84.00;;;;;;4856033;29;20044;-82
2022/04/01 12:51:50;;;;;;;1.83;0.70;;;7.20;82.10;;;;;;4872902;29;20041;-82
2022/04/01 12:54:31;;;;;;;1.98;0.88;;;7.40;81.90;;;;;;4854717;29;20157;-81
2022/04/01 12:57:00;;;;;;;3.17;0.70;;;7.60;79.90;;;;;;4871249;29;20045;-83
2022/04/01 12:59:26;;;;;;;1.85;0.60;;;7.80;79.20;;;;;;4868341;29;20195;-82
2022/04/01 13:02:09;;;;;;;1.60;0.70;;;7.80;77.80;;;;;;4880646;29;20052;-83
2022/04/01 13:04:47;;;;;;;4.20;0.70;;;7.80;77.10;;;;;;5110083;27;19924;-51
2022/04/01 13:07:18;;;;;;;3.70;0.65;;;7.70;78.30;;;;;;5097201;28;20046;-45
2022/04/01 13:09:52;;;;;;;2.35;0.98;;;7.70;78.00;;;;;;5100658;28;20043;-46
2022/04/01 13:12:23;;;;;;;2.33;0.90;;;7.60;77.10;;;;;;5098291;28;20127;-43
2022/04/01 13:15:09;;;;;;;2.90;0.70;;;7.60;80.30;;;;;;5095782;28;20054;-47
2022/04/01 13:17:44;;;;;;;1.95;0.80;;;7.60;81.40;;;;;;5104626;28;20043;-46
2022/04/01 13:20:12;;;;;;;5.13;0.80;;;7.60;81.50;;;;;;5096957;28;20107;-48
2022/04/01 13:22:42;;;;;;;2.10;0.65;;;7.80;81.80;;;;;;5100841;28;20495;-49
2022/04/01 13:25:09;;;;;;;2.88;0.90;;;8.20;79.60;;;;;;5099017;28;20032;-49
2022/04/01 13:27:34;;;;;;;2.35;0.60;;;8.70;75.90;;;;;;5103247;28;20551;-41
2022/04/01 13:30:02;;;;;;;2.58;0.85;;;9.00;72.50;;;;;;5095716;28;20181;-46
2022/04/01 13:32:28;;;;;;;1.40;0.50;;;9.00;71.90;;;;;;5101422;28;20047;-49
2022/04/01 13:34:53;;;;;;;1.80;0.70;;;9.10;71.10;;;;;;5103085;28;20036;-50